Wetterdaten: Woche 30.06.14 - 06.07.14 (KW27)
Datum Zeit Temperatur Luftfeuchte Luftdruck Niederschlag Windrichtung Sonnenschein Solar Wind
30.06.2014 00:00 10,7 C 98 % 1011,9 hPa 0,0 l/m SW 0,00 h 0 W/m 12,2 km/h (2 Bft)
30.06.2014 01:00 10,9 C 98 % 1012,0 hPa 0,0 l/m SW 0,00 h 0 W/m 9,5 km/h (2 Bft)
30.06.2014 02:00 10,9 C 98 % 1011,9 hPa 0,0 l/m W 0,00 h 0 W/m 17,3 km/h (3 Bft)
30.06.2014 03:00 10,7 C 98 % 1011,8 hPa 0,0 l/m W-SW 0,00 h 0 W/m 14,4 km/h (3 Bft)
30.06.2014 04:00 10,7 C 98 % 1011,7 hPa 0,2 l/m W-SW 0,00 h 0 W/m 11,0 km/h (2 Bft)
30.06.2014 05:00 10,8 C 97 % 1012,0 hPa 0,0 l/m W-SW 0,00 h 0 W/m 5,9 km/h (2 Bft)
30.06.2014 06:00 10,8 C 97 % 1012,2 hPa 0,2 l/m W-SW 0,00 h 12 W/m 7,0 km/h (2 Bft)
30.06.2014 07:00 11,1 C 98 % 1012,9 hPa 0,0 l/m W-SW 0,00 h 35 W/m 7,2 km/h (2 Bft)
30.06.2014 08:00 11,3 C 97 % 1013,8 hPa 0,2 l/m W-SW 0,00 h 63 W/m 7,6 km/h (2 Bft)
30.06.2014 09:00 11,7 C 97 % 1014,1 hPa 0,2 l/m W-SW 0,00 h 109 W/m 8,0 km/h (2 Bft)
30.06.2014 10:00 12,2 C 95 % 1014,5 hPa 0,2 l/m W 0,00 h 152 W/m 11,4 km/h (2 Bft)
30.06.2014 11:00 11,9 C 95 % 1015,0 hPa 4,2 l/m W 0,00 h 127 W/m 16,6 km/h (3 Bft)
30.06.2014 12:00 13,1 C 94 % 1015,1 hPa 0,0 l/m W 0,08 h 389 W/m 12,2 km/h (2 Bft)
30.06.2014 13:00 13,5 C 92 % 1015,0 hPa 2,8 l/m SW 0,17 h 292 W/m 12,2 km/h (2 Bft)
30.06.2014 14:00 13,7 C 91 % 1015,3 hPa 0,0 l/m W-SW 0,00 h 234 W/m 12,7 km/h (3 Bft)
30.06.2014 15:00 14,0 C 88 % 1015,5 hPa 0,0 l/m SW 0,00 h 183 W/m 13,2 km/h (3 Bft)
30.06.2014 16:00 15,0 C 83 % 1015,4 hPa 0,0 l/m SW 0,25 h 375 W/m 20,2 km/h (4 Bft)
30.06.2014 17:00 15,7 C 77 % 1015,3 hPa 0,0 l/m W 0,33 h 225 W/m 17,4 km/h (3 Bft)
30.06.2014 18:00 15,1 C 76 % 1015,9 hPa 0,0 l/m W-SW 0,75 h 405 W/m 20,9 km/h (4 Bft)
30.06.2014 19:00 14,3 C 81 % 1016,1 hPa 0,0 l/m W-SW 0,25 h 152 W/m 14,0 km/h (3 Bft)
30.06.2014 20:00 13,3 C 85 % 1016,2 hPa 0,0 l/m SW 0,08 h 24 W/m 6,7 km/h (2 Bft)
30.06.2014 21:00 12,2 C 88 % 1016,7 hPa 0,0 l/m SW 0,00 h 6 W/m 2,1 km/h (1 Bft)
30.06.2014 22:00 11,1 C 92 % 1017,3 hPa 0,0 l/m N 0,00 h 0 W/m 0,4 km/h (0 Bft)
30.06.2014 23:00 10,3 C 95 % 1017,6 hPa 0,0 l/m W-SW 0,00 h 0 W/m 2,5 km/h (1 Bft)
01.07.2014 00:00 9,6 C 96 % 1017,2 hPa 0,0 l/m N 0,00 h 0 W/m 0,0 km/h (0 Bft)
01.07.2014 01:00 8,9 C 97 % 1016,9 hPa 0,0 l/m N 0,00 h 0 W/m 0,0 km/h (0 Bft)
01.07.2014 02:00 8,1 C 97 % 1016,9 hPa 0,0 l/m N 0,00 h 0 W/m 0,0 km/h (0 Bft)
01.07.2014 03:00 7,6 C 98 % 1016,8 hPa 0,0 l/m N 0,00 h 0 W/m 0,1 km/h (0 Bft)
01.07.2014 04:00 6,9 C 98 % 1016,8 hPa 0,0 l/m N 0,00 h 0 W/m 0,0 km/h (0 Bft)
01.07.2014 05:00 6,7 C 98 % 1016,8 hPa 0,0 l/m N 0,00 h 11 W/m 1,3 km/h (1 Bft)
01.07.2014 06:00 7,5 C 98 % 1017,2 hPa 0,0 l/m N 0,00 h 69 W/m 0,4 km/h (0 Bft)
01.07.2014 07:00 9,6 C 96 % 1017,3 hPa 0,0 l/m N 1,00 h 202 W/m 0,4 km/h (0 Bft)
01.07.2014 08:00 12,6 C 87 % 1017,2 hPa 0,0 l/m N 1,00 h 366 W/m 1,6 km/h (1 Bft)
01.07.2014 09:00 15,2 C 74 % 1017,0 hPa 0,0 l/m W 1,00 h 530 W/m 5,3 km/h (1 Bft)
01.07.2014 10:00 16,7 C 67 % 1016,8 hPa 0,0 l/m O-NO 0,92 h 641 W/m 11,4 km/h (2 Bft)
01.07.2014 11:00 17,8 C 60 % 1016,5 hPa 0,0 l/m NO 0,92 h 734 W/m 10,8 km/h (2 Bft)
01.07.2014 12:00 19,0 C 53 % 1016,1 hPa 0,0 l/m NO 1,00 h 891 W/m 10,1 km/h (2 Bft)
01.07.2014 13:00 19,9 C 47 % 1015,6 hPa 0,0 l/m O-NO 1,00 h 935 W/m 12,5 km/h (3 Bft)
01.07.2014 14:00 20,7 C 44 % 1015,3 hPa 0,0 l/m NO 1,00 h 886 W/m 11,4 km/h (2 Bft)
01.07.2014 15:00 21,5 C 40 % 1014,8 hPa 0,0 l/m O-NO 1,00 h 840 W/m 9,4 km/h (2 Bft)
01.07.2014 16:00 21,9 C 41 % 1014,4 hPa 0,0 l/m O-NO 0,83 h 596 W/m 9,3 km/h (2 Bft)
01.07.2014 17:00 21,3 C 43 % 1014,3 hPa 0,0 l/m S-SO 0,33 h 300 W/m 9,4 km/h (2 Bft)
01.07.2014 18:00 21,7 C 41 % 1014,1 hPa 0,0 l/m O-NO 0,67 h 355 W/m 9,2 km/h (2 Bft)
01.07.2014 19:00 20,4 C 45 % 1014,2 hPa 0,0 l/m O-NO 0,00 h 79 W/m 7,0 km/h (2 Bft)
01.07.2014 20:00 19,3 C 52 % 1014,5 hPa 0,0 l/m O-NO 0,00 h 35 W/m 3,3 km/h (1 Bft)
01.07.2014 21:00 16,8 C 68 % 1015,0 hPa 0,0 l/m O 0,08 h 9 W/m 1,5 km/h (1 Bft)
01.07.2014 22:00 15,2 C 76 % 1015,5 hPa 0,0 l/m N 0,00 h 0 W/m 0,0 km/h (0 Bft)
01.07.2014 23:00 13,8 C 82 % 1015,7 hPa 0,0 l/m N 0,00 h 0 W/m 0,0 km/h (0 Bft)
02.07.2014 00:00 12,6 C 87 % 1015,5 hPa 0,0 l/m N 0,00 h 0 W/m 0,0 km/h (0 Bft)
02.07.2014 01:00 11,9 C 89 % 1015,3 hPa 0,0 l/m N 0,00 h 0 W/m 0,0 km/h (0 Bft)
02.07.2014 02:00 11,9 C 90 % 1015,0 hPa 0,0 l/m N 0,00 h 0 W/m 0,0 km/h (0 Bft)
02.07.2014 03:00 12,3 C 89 % 1014,9 hPa 0,0 l/m O 0,00 h 0 W/m 2,7 km/h (1 Bft)
02.07.2014 04:00 12,4 C 89 % 1014,6 hPa 0,0 l/m O 0,00 h 0 W/m 3,3 km/h (1 Bft)
02.07.2014 05:00 12,3 C 90 % 1014,9 hPa 0,0 l/m O 0,00 h 7 W/m 3,5 km/h (1 Bft)
02.07.2014 06:00 12,2 C 91 % 1015,2 hPa 0,0 l/m O-NO 0,00 h 18 W/m 6,5 km/h (2 Bft)
02.07.2014 07:00 12,6 C 91 % 1015,9 hPa 0,0 l/m O-NO 0,00 h 33 W/m 6,8 km/h (2 Bft)
02.07.2014 08:00 12,9 C 90 % 1016,7 hPa 0,0 l/m O-NO 0,00 h 67 W/m 3,5 km/h (1 Bft)
02.07.2014 09:00 13,2 C 93 % 1017,1 hPa 1,2 l/m N 0,00 h 74 W/m 0,8 km/h (0 Bft)
02.07.2014 10:00 13,7 C 95 % 1017,4 hPa 0,4 l/m O-NO 0,00 h 108 W/m 2,0 km/h (1 Bft)
02.07.2014 11:00 13,9 C 96 % 1018,0 hPa 0,8 l/m S 0,00 h 94 W/m 6,8 km/h (2 Bft)
02.07.2014 12:00 14,1 C 95 % 1018,5 hPa 0,4 l/m S 0,00 h 138 W/m 4,1 km/h (1 Bft)
02.07.2014 13:00 14,4 C 95 % 1018,7 hPa 0,8 l/m S 0,00 h 122 W/m 6,3 km/h (2 Bft)
02.07.2014 14:00 14,3 C 94 % 1019,0 hPa 0,4 l/m S-SW 0,00 h 127 W/m 5,6 km/h (1 Bft)
02.07.2014 15:00 14,8 C 92 % 1019,6 hPa 0,0 l/m S-SW 0,00 h 156 W/m 6,7 km/h (2 Bft)
02.07.2014 16:00 15,2 C 90 % 1019,9 hPa 0,0 l/m SW 0,00 h 205 W/m 11,4 km/h (2 Bft)
02.07.2014 17:00 15,7 C 87 % 1020,0 hPa 0,0 l/m SW 0,17 h 261 W/m 12,1 km/h (2 Bft)
02.07.2014 18:00 16,8 C 82 % 1020,4 hPa 0,0 l/m SW 1,00 h 411 W/m 14,6 km/h (3 Bft)
02.07.2014 19:00 15,9 C 83 % 1020,9 hPa 0,0 l/m W-SW 0,50 h 144 W/m 9,0 km/h (2 Bft)
02.07.2014 20:00 14,9 C 89 % 1021,0 hPa 0,0 l/m SW 0,25 h 46 W/m 9,4 km/h (2 Bft)
02.07.2014 21:00 13,5 C 93 % 1021,5 hPa 0,0 l/m N 0,00 h 8 W/m 3,2 km/h (1 Bft)
02.07.2014 22:00 12,3 C 96 % 1022,3 hPa 0,0 l/m N 0,00 h 0 W/m 0,1 km/h (0 Bft)
02.07.2014 23:00 11,6 C 97 % 1022,9 hPa 0,0 l/m N 0,00 h 0 W/m 0,4 km/h (0 Bft)
03.07.2014 00:00 11,6 C 98 % 1023,3 hPa 0,0 l/m SW 0,00 h 0 W/m 0,5 km/h (0 Bft)
03.07.2014 01:00 11,4 C 98 % 1023,5 hPa 0,0 l/m N 0,00 h 0 W/m 0,8 km/h (0 Bft)
03.07.2014 02:00 10,8 C 99 % 1023,6 hPa 0,0 l/m SW 0,00 h 0 W/m 2,3 km/h (1 Bft)
03.07.2014 03:00 10,8 C 99 % 1023,7 hPa 0,0 l/m SW 0,00 h 0 W/m 2,7 km/h (1 Bft)
03.07.2014 04:00 10,2 C 99 % 1023,5 hPa 0,0 l/m N 0,00 h 0 W/m 0,0 km/h (0 Bft)
03.07.2014 05:00 9,8 C 99 % 1023,5 hPa 0,0 l/m N 0,00 h 8 W/m 0,0 km/h (0 Bft)
03.07.2014 06:00 9,7 C 99 % 1023,5 hPa 0,0 l/m N 0,00 h 29 W/m 0,0 km/h (0 Bft)
03.07.2014 07:00 10,3 C 100 % 1023,7 hPa 0,0 l/m N 0,00 h 79 W/m 0,1 km/h (0 Bft)
03.07.2014 08:00 12,4 C 100 % 1024,0 hPa 0,0 l/m SW 0,92 h 331 W/m 1,9 km/h (1 Bft)
03.07.2014 09:00 15,0 C 91 % 1023,9 hPa 0,0 l/m SW 1,00 h 484 W/m 5,1 km/h (1 Bft)
03.07.2014 10:00 17,5 C 81 % 1024,1 hPa 0,0 l/m SW 1,00 h 641 W/m 6,1 km/h (2 Bft)
03.07.2014 11:00 19,6 C 71 % 1024,3 hPa 0,0 l/m S 1,00 h 768 W/m 9,9 km/h (2 Bft)
03.07.2014 12:00 21,4 C 61 % 1024,1 hPa 0,0 l/m S-SO 1,00 h 866 W/m 9,9 km/h (2 Bft)
03.07.2014 13:00 22,6 C 52 % 1023,5 hPa 0,0 l/m S-SW 1,00 h 904 W/m 11,0 km/h (2 Bft)
03.07.2014 14:00 23,9 C 44 % 1022,7 hPa 0,0 l/m S 1,00 h 887 W/m 8,7 km/h (2 Bft)
03.07.2014 15:00 24,7 C 41 % 1022,2 hPa 0,0 l/m S 1,00 h 823 W/m 8,9 km/h (2 Bft)
03.07.2014 16:00 25,5 C 41 % 1021,8 hPa 0,0 l/m SW 1,00 h 715 W/m 10,9 km/h (2 Bft)
03.07.2014 17:00 25,4 C 40 % 1021,1 hPa 0,0 l/m S 1,00 h 574 W/m 9,3 km/h (2 Bft)
03.07.2014 18:00 25,1 C 39 % 1020,4 hPa 0,0 l/m S-SW 1,00 h 436 W/m 5,1 km/h (1 Bft)
03.07.2014 19:00 24,0 C 44 % 1019,9 hPa 0,0 l/m S-SW 1,00 h 255 W/m 3,2 km/h (1 Bft)
03.07.2014 20:00 21,1 C 62 % 1019,6 hPa 0,0 l/m N 0,25 h 47 W/m 1,7 km/h (1 Bft)
03.07.2014 21:00 17,9 C 67 % 1019,4 hPa 0,0 l/m N 0,00 h 7 W/m 0,8 km/h (0 Bft)
03.07.2014 22:00 15,5 C 75 % 1019,3 hPa 0,0 l/m N 0,00 h 0 W/m 0,0 km/h (0 Bft)
03.07.2014 23:00 14,2 C 79 % 1019,0 hPa 0,0 l/m N 0,00 h 0 W/m 0,0 km/h (0 Bft)
04.07.2014 00:00 13,2 C 85 % 1018,7 hPa 0,0 l/m N 0,00 h 0 W/m 0,0 km/h (0 Bft)
04.07.2014 01:00 12,4 C 89 % 1018,2 hPa 0,0 l/m N 0,00 h 0 W/m 0,1 km/h (0 Bft)
04.07.2014 02:00 11,7 C 90 % 1017,5 hPa 0,0 l/m N 0,00 h 0 W/m 0,3 km/h (0 Bft)
04.07.2014 03:00 11,1 C 91 % 1016,7 hPa 0,0 l/m N 0,00 h 0 W/m 1,3 km/h (1 Bft)
04.07.2014 04:00 10,8 C 92 % 1016,1 hPa 0,0 l/m N 0,00 h 0 W/m 0,7 km/h (0 Bft)
04.07.2014 05:00 10,9 C 91 % 1015,6 hPa 0,0 l/m N 0,08 h 12 W/m 1,9 km/h (1 Bft)
04.07.2014 06:00 12,2 C 88 % 1015,4 hPa 0,0 l/m S-SW 0,00 h 63 W/m 1,1 km/h (0 Bft)
04.07.2014 07:00 13,7 C 84 % 1014,7 hPa 0,0 l/m SW 0,58 h 169 W/m 6,0 km/h (2 Bft)
04.07.2014 08:00 16,1 C 78 % 1013,8 hPa 0,0 l/m W-SW 0,58 h 264 W/m 5,9 km/h (2 Bft)
04.07.2014 09:00 18,9 C 74 % 1012,9 hPa 0,0 l/m NW 0,67 h 381 W/m 6,3 km/h (2 Bft)
04.07.2014 10:00 21,8 C 63 % 1011,7 hPa 0,0 l/m N-NO 0,67 h 469 W/m 7,6 km/h (2 Bft)
04.07.2014 11:00 23,6 C 60 % 1010,6 hPa 0,0 l/m O-NO 0,83 h 681 W/m 11,8 km/h (2 Bft)
04.07.2014 12:00 25,4 C 52 % 1009,8 hPa 0,0 l/m O-NO 0,67 h 610 W/m 14,9 km/h (3 Bft)
04.07.2014 13:00 26,5 C 48 % 1008,6 hPa 0,0 l/m O-NO 0,42 h 421 W/m 15,8 km/h (3 Bft)
04.07.2014 14:00 26,0 C 52 % 1007,8 hPa 0,0 l/m O 0,17 h 327 W/m 11,7 km/h (2 Bft)
04.07.2014 15:00 27,5 C 51 % 1007,1 hPa 0,0 l/m O 0,67 h 523 W/m 13,3 km/h (3 Bft)
04.07.2014 16:00 28,2 C 49 % 1006,4 hPa 0,0 l/m O-SO 0,33 h 289 W/m 14,8 km/h (3 Bft)
04.07.2014 17:00 26,3 C 57 % 1005,8 hPa 0,0 l/m O-SO 0,00 h 111 W/m 8,2 km/h (2 Bft)
04.07.2014 18:00 25,2 C 53 % 1005,2 hPa 0,0 l/m S 0,00 h 83 W/m 6,6 km/h (2 Bft)
04.07.2014 19:00 24,2 C 55 % 1005,4 hPa 0,0 l/m S 0,00 h 66 W/m 2,8 km/h (1 Bft)
04.07.2014 20:00 22,6 C 55 % 1005,4 hPa 0,0 l/m SW 0,00 h 21 W/m 14,3 km/h (3 Bft)
04.07.2014 21:00 22,0 C 53 % 1005,7 hPa 0,0 l/m SW 0,08 h 8 W/m 23,7 km/h (4 Bft)
04.07.2014 22:00 21,1 C 52 % 1006,1 hPa 0,0 l/m W-SW 0,00 h 0 W/m 18,8 km/h (3 Bft)
04.07.2014 23:00 20,3 C 56 % 1006,3 hPa 0,0 l/m W-SW 0,00 h 0 W/m 11,4 km/h (2 Bft)
05.07.2014 00:00 18,9 C 70 % 1007,8 hPa 0,0 l/m W-SW 0,00 h 0 W/m 28,0 km/h (4 Bft)
05.07.2014 01:00 17,7 C 74 % 1008,6 hPa 0,0 l/m W-NW 0,00 h 0 W/m 34,2 km/h (5 Bft)
05.07.2014 02:00 16,5 C 82 % 1008,8 hPa 0,0 l/m SW 0,00 h 0 W/m 14,5 km/h (3 Bft)
05.07.2014 03:00 15,7 C 87 % 1008,8 hPa 0,0 l/m SW 0,00 h 0 W/m 13,4 km/h (3 Bft)
05.07.2014 04:00 15,0 C 91 % 1008,7 hPa 0,0 l/m SW 0,00 h 0 W/m 13,8 km/h (3 Bft)
05.07.2014 05:00 14,7 C 93 % 1008,6 hPa 0,0 l/m SW 0,00 h 5 W/m 15,8 km/h (3 Bft)
05.07.2014 06:00 14,9 C 92 % 1008,7 hPa 0,0 l/m SW 0,00 h 24 W/m 13,3 km/h (3 Bft)
05.07.2014 07:00 15,3 C 91 % 1008,8 hPa 0,0 l/m SW 0,00 h 63 W/m 13,3 km/h (3 Bft)
05.07.2014 08:00 16,9 C 84 % 1008,8 hPa 0,0 l/m W-SW 0,17 h 147 W/m 24,8 km/h (4 Bft)
05.07.2014 09:00 17,1 C 84 % 1009,1 hPa 0,0 l/m W-SW 0,00 h 111 W/m 23,5 km/h (4 Bft)
05.07.2014 10:00 17,5 C 85 % 1009,4 hPa 0,0 l/m SW 0,00 h 177 W/m 20,1 km/h (4 Bft)
05.07.2014 11:00 17,3 C 86 % 1010,0 hPa 0,0 l/m W-SW 0,00 h 100 W/m 19,6 km/h (3 Bft)
05.07.2014 12:00 18,6 C 84 % 1010,0 hPa 0,0 l/m W-SW 0,08 h 341 W/m 20,2 km/h (4 Bft)
05.07.2014 13:00 20,2 C 77 % 1009,8 hPa 0,0 l/m SW 0,25 h 429 W/m 20,8 km/h (4 Bft)
05.07.2014 14:00 21,3 C 71 % 1009,8 hPa 0,0 l/m W-SW 0,17 h 369 W/m 23,1 km/h (4 Bft)
05.07.2014 15:00 20,4 C 77 % 1010,1 hPa 0,0 l/m SW 0,00 h 160 W/m 20,5 km/h (4 Bft)
05.07.2014 16:00 19,2 C 87 % 1010,5 hPa 0,4 l/m W-SW 0,00 h 245 W/m 11,9 km/h (2 Bft)
05.07.2014 17:00 20,6 C 79 % 1010,4 hPa 0,0 l/m W-SW 0,42 h 321 W/m 18,1 km/h (3 Bft)
05.07.2014 18:00 20,7 C 75 % 1010,4 hPa 0,0 l/m W 0,25 h 242 W/m 18,5 km/h (3 Bft)
05.07.2014 19:00 20,2 C 77 % 1010,5 hPa 0,0 l/m W-SW 0,25 h 111 W/m 11,7 km/h (2 Bft)
05.07.2014 20:00 19,4 C 80 % 1010,7 hPa 0,0 l/m W-SW 0,00 h 36 W/m 10,2 km/h (2 Bft)
05.07.2014 21:00 18,2 C 84 % 1011,3 hPa 0,0 l/m W-SW 0,00 h 6 W/m 3,2 km/h (1 Bft)
05.07.2014 22:00 16,4 C 91 % 1012,1 hPa 0,0 l/m N 0,00 h 0 W/m 0,9 km/h (0 Bft)
05.07.2014 23:00 15,5 C 93 % 1012,4 hPa 0,0 l/m N 0,00 h 0 W/m 0,3 km/h (0 Bft)
06.07.2014 00:00 15,0 C 95 % 1012,5 hPa 0,0 l/m N 0,00 h 0 W/m 0,0 km/h (0 Bft)
06.07.2014 01:00 14,5 C 96 % 1012,2 hPa 0,0 l/m N 0,00 h 0 W/m 0,0 km/h (0 Bft)
06.07.2014 02:00 13,8 C 97 % 1011,9 hPa 0,0 l/m N 0,00 h 0 W/m 0,0 km/h (0 Bft)
06.07.2014 03:00 13,4 C 97 % 1011,7 hPa 0,0 l/m N 0,00 h 0 W/m 0,0 km/h (0 Bft)
06.07.2014 04:00 13,0 C 97 % 1011,5 hPa 0,0 l/m N 0,00 h 0 W/m 0,0 km/h (0 Bft)
06.07.2014 05:00 12,6 C 98 % 1011,6 hPa 0,0 l/m N 0,00 h 8 W/m 0,0 km/h (0 Bft)
06.07.2014 06:00 13,0 C 98 % 1011,3 hPa 0,0 l/m N 0,00 h 53 W/m 0,0 km/h (0 Bft)
06.07.2014 07:00 15,6 C 95 % 1011,0 hPa 0,0 l/m N 0,83 h 191 W/m 0,0 km/h (0 Bft)
06.07.2014 08:00 19,1 C 82 % 1010,9 hPa 0,0 l/m N 1,00 h 355 W/m 0,0 km/h (0 Bft)
06.07.2014 09:00 21,4 C 73 % 1010,6 hPa 0,0 l/m N 1,00 h 473 W/m 0,0 km/h (0 Bft)
06.07.2014 10:00 23,8 C 65 % 1010,2 hPa 0,0 l/m O-NO 1,00 h 656 W/m 8,2 km/h (2 Bft)
06.07.2014 11:00 25,3 C 55 % 1009,7 hPa 0,0 l/m O-SO 1,00 h 707 W/m 13,4 km/h (3 Bft)
06.07.2014 12:00 26,2 C 53 % 1009,3 hPa 0,0 l/m O 1,00 h 798 W/m 12,0 km/h (2 Bft)
06.07.2014 13:00 26,9 C 49 % 1008,9 hPa 0,0 l/m O 1,00 h 854 W/m 10,7 km/h (2 Bft)
06.07.2014 14:00 28,3 C 46 % 1008,5 hPa 0,0 l/m O-SO 1,00 h 846 W/m 9,1 km/h (2 Bft)
06.07.2014 15:00 28,8 C 44 % 1007,9 hPa 0,0 l/m NO 1,00 h 805 W/m 8,3 km/h (2 Bft)
06.07.2014 16:00 29,6 C 43 % 1007,5 hPa 0,0 l/m O-NO 1,00 h 702 W/m 8,4 km/h (2 Bft)
06.07.2014 17:00 29,7 C 42 % 1006,8 hPa 0,0 l/m N-NO 1,00 h 567 W/m 7,8 km/h (2 Bft)
06.07.2014 18:00 29,7 C 41 % 1006,2 hPa 0,0 l/m NO 1,00 h 409 W/m 7,2 km/h (2 Bft)
06.07.2014 19:00 28,9 C 44 % 1005,8 hPa 0,0 l/m O 1,00 h 237 W/m 10,5 km/h (2 Bft)
06.07.2014 20:00 26,9 C 52 % 1006,2 hPa 0,0 l/m O-SO 0,25 h 39 W/m 6,2 km/h (2 Bft)
06.07.2014 21:00 22,6 C 71 % 1006,5 hPa 0,0 l/m N 0,00 h 5 W/m 0,1 km/h (0 Bft)
06.07.2014 22:00 20,8 C 76 % 1007,5 hPa 0,0 l/m W-NW 0,00 h 0 W/m 8,2 km/h (2 Bft)
06.07.2014 23:00 19,5 C 72 % 1009,9 hPa 4,8 l/m N-NW 0,00 h 0 W/m 29,1 km/h (5 Bft)
Min-Datum _ 01.07.14 03.07.14 04.07.14 - - - - 30.06.14
_ Min-Zeit 05:10 16:10 18:00 - - - - 05:10
Minimum _ 6,6 C 36 % 1005,1 hPa - - - - 0,0 km/h (0 Bft)
Max-Datum _ 06.07.14 03.07.14 03.07.14 06.07.14 - 30.06.14 30.06.14 05.07.14
_ Max-Zeit 16:55 06:35 11:50 23:50 - 12:55 13:35 00:50
Maximum _ 29,9 C 100 % 1024,4 hPa 4,8 l/m - 0,08 h 1042 W/m 48,3 km/h
W (6 Bft)
Durchschnitt _ 16,7 C 78 % 1014,4 hPa #17,2 l/m W-SW #47:10 h 298 W/m 7,9 km/h (2 Bft)